Time;durP1;ratioP1;P1;durP2;ratioP2;P2;SDS_P1;SDS_P2;PMS_P1;PMS_P2;Temp;Humidity;BMP_temperature;BMP_pressure;BME280_temperature;BME280_humidity;BME280_pressure;Samples;Min_cycle;Max_cycle;Signal;HPM_P1;HPM_P2
2023/06/23 00:00:37;;;;;;;14.98;8.45;;;17.80;99.90;;;;;;5065456;28;20266;-76
2023/06/23 00:03:03;;;;;;;17.40;7.85;;;17.80;99.90;;;;;;4997553;28;20022;-76
2023/06/23 00:05:28;;;;;;;15.60;7.80;;;17.70;99.90;;;;;;4997508;28;20299;-76
2023/06/23 00:07:54;;;;;;;13.63;8.30;;;17.70;99.90;;;;;;5015858;28;20032;-76
2023/06/23 00:10:20;;;;;;;12.65;7.75;;;17.70;99.90;;;;;;5014981;28;20383;-76
2023/06/23 00:12:47;;;;;;;14.65;7.45;;;17.70;99.90;;;;;;5012762;28;20114;-76
2023/06/23 00:15:14;;;;;;;14.68;7.70;;;17.70;99.90;;;;;;4980319;28;20023;-76
2023/06/23 00:17:43;;;;;;;12.98;7.93;;;17.70;99.90;;;;;;4997720;28;20107;-76
2023/06/23 00:20:13;;;;;;;13.43;7.85;;;17.70;99.90;;;;;;5014777;28;20234;-76
2023/06/23 00:22:43;;;;;;;14.63;7.97;;;17.70;99.90;;;;;;5011879;28;20063;-76
2023/06/23 00:25:10;;;;;;;14.48;8.18;;;17.70;99.90;;;;;;5012986;28;20041;-76
2023/06/23 00:27:37;;;;;;;15.50;8.10;;;17.70;99.90;;;;;;4997967;28;20255;-76
2023/06/23 00:30:03;;;;;;;13.35;7.65;;;17.70;99.90;;;;;;5016804;27;20045;-76
2023/06/23 00:32:29;;;;;;;13.20;7.03;;;17.70;99.90;;;;;;5095805;28;20265;-76
2023/06/23 00:34:55;;;;;;;17.05;8.10;;;17.70;99.90;;;;;;5078264;28;20047;-76
2023/06/23 00:37:21;;;;;;;13.00;7.47;;;17.70;99.90;;;;;;5100460;28;20023;-75
2023/06/23 00:39:46;;;;;;;14.18;7.22;;;17.70;99.90;;;;;;5084825;28;20020;-76
2023/06/23 00:42:12;;;;;;;13.43;6.82;;;17.70;99.90;;;;;;5100057;28;20050;-76
2023/06/23 00:44:38;;;;;;;13.55;7.10;;;17.70;99.90;;;;;;5081842;28;20024;-76
2023/06/23 00:47:04;;;;;;;13.48;6.53;;;17.70;99.90;;;;;;5084163;28;20107;-76
2023/06/23 00:49:30;;;;;;;12.70;6.38;;;17.70;99.90;;;;;;5066917;28;20046;-76
2023/06/23 00:51:58;;;;;;;14.38;7.10;;;17.70;99.90;;;;;;5101234;28;20174;-76
2023/06/23 00:54:25;;;;;;;11.93;6.82;;;17.70;99.90;;;;;;5082686;28;20028;-76
2023/06/23 00:56:51;;;;;;;15.88;6.57;;;17.70;99.90;;;;;;5067823;28;20272;-76
2023/06/23 00:59:16;;;;;;;12.52;6.60;;;17.60;99.90;;;;;;5082587;28;20056;-76
2023/06/23 01:01:42;;;;;;;11.82;6.03;;;17.60;99.90;;;;;;5100936;28;20046;-76
2023/06/23 01:04:08;;;;;;;11.95;6.45;;;17.60;99.90;;;;;;5099445;28;20211;-76
2023/06/23 01:06:39;;;;;;;12.93;6.03;;;17.60;99.90;;;;;;5066043;28;20016;-75
2023/06/23 01:09:26;;;;;;;12.48;5.45;;;17.60;99.90;;;;;;5082639;28;20031;-76
2023/06/23 01:12:01;;;;;;;10.23;5.50;;;17.60;99.90;;;;;;5096502;28;20017;-76
2023/06/23 01:14:36;;;;;;;10.43;5.25;;;17.60;99.90;;;;;;5099296;28;21179;-76
2023/06/23 01:17:13;;;;;;;13.07;5.60;;;17.50;99.90;;;;;;5096515;28;20165;-76
2023/06/23 01:20:15;;;;;;;11.57;5.35;;;17.50;99.90;;;;;;5100437;28;20032;-76
2023/06/23 01:23:06;;;;;;;11.87;5.47;;;17.50;99.90;;;;;;5096540;28;20150;-76
2023/06/23 01:25:43;;;;;;;11.18;4.78;;;17.50;99.90;;;;;;5097986;28;20269;-75
2023/06/23 01:28:18;;;;;;;9.80;4.90;;;17.50;99.90;;;;;;5098001;28;20027;-76
2023/06/23 01:30:49;;;;;;;11.77;5.18;;;17.40;99.90;;;;;;5082971;28;20032;-76
2023/06/23 01:33:21;;;;;;;10.95;4.90;;;17.40;99.90;;;;;;5101204;28;20347;-76
2023/06/23 01:36:08;;;;;;;10.47;4.97;;;17.40;99.90;;;;;;5098380;28;20185;-75
2023/06/23 01:38:38;;;;;;;12.63;5.38;;;17.50;99.90;;;;;;5099859;28;20527;-76
2023/06/23 01:41:15;;;;;;;10.95;4.72;;;17.40;99.90;;;;;;5098995;28;20023;-76
2023/06/23 01:43:47;;;;;;;11.80;4.38;;;17.40;99.90;;;;;;5100315;28;20042;-76
2023/06/23 01:46:16;;;;;;;9.38;4.40;;;17.40;99.90;;;;;;5082566;28;20146;-76
2023/06/23 01:48:46;;;;;;;13.02;4.82;;;17.40;99.90;;;;;;5099709;28;20081;-75
2023/06/23 01:51:12;;;;;;;10.95;4.45;;;17.40;99.90;;;;;;5075568;28;20119;-75
2023/06/23 01:53:39;;;;;;;10.07;4.28;;;17.40;99.90;;;;;;5083234;28;20020;-75
2023/06/23 01:56:08;;;;;;;10.82;4.28;;;17.40;99.90;;;;;;5099745;28;20035;-75
2023/06/23 01:58:37;;;;;;;12.23;4.30;;;17.40;99.90;;;;;;5096745;28;20012;-75
2023/06/23 02:01:04;;;;;;;10.02;4.03;;;17.40;99.90;;;;;;5081163;28;20024;-75
2023/06/23 02:03:32;;;;;;;9.57;4.28;;;17.40;99.90;;;;;;5100098;28;20154;-76
2023/06/23 02:05:59;;;;;;;10.15;4.35;;;17.40;99.90;;;;;;5082105;28;20024;-75
2023/06/23 02:08:26;;;;;;;9.20;4.03;;;17.30;99.90;;;;;;5098562;28;20069;-75
2023/06/23 02:10:54;;;;;;;10.27;4.45;;;17.40;99.90;;;;;;5099765;28;20087;-75
2023/06/23 02:13:22;;;;;;;11.15;4.43;;;17.40;99.90;;;;;;5095937;28;20050;-75
2023/06/23 02:15:50;;;;;;;11.27;4.75;;;17.40;99.90;;;;;;5081264;28;20020;-75
2023/06/23 02:18:17;;;;;;;10.85;4.20;;;17.40;99.90;;;;;;5095690;28;20050;-75
2023/06/23 02:20:45;;;;;;;12.27;5.05;;;17.40;99.90;;;;;;5082861;28;20098;-75
2023/06/23 02:23:13;;;;;;;12.52;4.80;;;17.40;99.90;;;;;;5072794;28;20035;-75
2023/06/23 02:25:40;;;;;;;12.77;5.05;;;17.40;99.90;;;;;;5071458;28;20020;-75
2023/06/23 02:28:10;;;;;;;11.32;5.00;;;17.40;99.90;;;;;;5095981;28;20291;-76
2023/06/23 02:30:38;;;;;;;11.00;4.97;;;17.40;99.90;;;;;;5096212;28;20028;-75
2023/06/23 02:33:04;;;;;;;14.30;5.13;;;17.40;99.90;;;;;;5097562;28;20035;-75
2023/06/23 02:35:30;;;;;;;10.82;4.88;;;17.40;99.90;;;;;;5078933;28;20210;-75
2023/06/23 02:38:00;;;;;;;12.52;4.53;;;17.40;99.90;;;;;;5097539;28;20226;-75
2023/06/23 02:40:29;;;;;;;10.25;4.88;;;17.40;99.90;;;;;;5096272;28;20039;-75
2023/06/23 02:43:21;;;;;;;11.45;4.88;;;17.40;99.90;;;;;;5096272;28;20020;-75
2023/06/23 02:45:49;;;;;;;11.40;4.57;;;17.40;99.90;;;;;;5078701;28;20046;-76
2023/06/23 02:48:22;;;;;;;12.30;5.10;;;17.50;99.90;;;;;;5097248;28;20028;-75
2023/06/23 02:50:50;;;;;;;12.95;5.38;;;17.40;99.90;;;;;;5077621;28;20031;-76
2023/06/23 02:53:25;;;;;;;13.40;5.30;;;17.50;99.90;;;;;;5096564;28;20273;-76
2023/06/23 02:56:00;;;;;;;11.35;4.78;;;17.50;99.90;;;;;;5096835;28;20262;-76
2023/06/23 02:58:28;;;;;;;12.23;5.07;;;17.50;99.90;;;;;;5076686;28;20051;-75
2023/06/23 03:00:56;;;;;;;15.05;5.78;;;17.50;99.90;;;;;;5098237;28;20193;-76
2023/06/23 03:03:21;;;;;;;9.60;4.75;;;17.50;99.90;;;;;;5080839;28;20012;-76
2023/06/23 03:05:48;;;;;;;11.05;4.80;;;17.40;99.90;;;;;;5064419;28;20188;-75
2023/06/23 03:08:15;;;;;;;11.90;5.20;;;17.50;99.90;;;;;;5081669;28;20028;-76
2023/06/23 03:10:41;;;;;;;13.18;5.20;;;17.40;99.90;;;;;;5081111;28;20253;-76
2023/06/23 03:13:07;;;;;;;12.05;5.30;;;17.40;99.90;;;;;;5096979;28;20250;-76
2023/06/23 03:15:36;;;;;;;10.80;5.18;;;17.40;99.90;;;;;;5098254;28;20142;-75
2023/06/23 03:18:08;;;;;;;11.50;4.85;;;17.40;99.90;;;;;;5098268;28;20044;-76
2023/06/23 03:20:55;;;;;;;11.77;5.13;;;17.40;99.90;;;;;;5080886;28;20073;-75
2023/06/23 03:23:23;;;;;;;12.13;4.72;;;17.50;99.90;;;;;;5077560;28;20028;-76
2023/06/23 03:25:49;;;;;;;12.38;5.10;;;17.40;99.90;;;;;;5080831;28;20284;-76
2023/06/23 03:28:21;;;;;;;10.93;4.90;;;17.40;99.90;;;;;;5096520;28;20125;-76
2023/06/23 03:31:02;;;;;;;12.03;4.93;;;17.40;99.90;;;;;;5096687;28;20090;-76
2023/06/23 03:33:34;;;;;;;11.70;5.05;;;17.40;99.90;;;;;;5096624;28;20035;-75
2023/06/23 03:36:07;;;;;;;12.85;5.35;;;17.40;99.90;;;;;;5098493;28;20031;-75
2023/06/23 03:38:37;;;;;;;12.07;5.53;;;17.40;99.90;;;;;;5094581;28;20035;-76
2023/06/23 03:41:09;;;;;;;13.38;5.53;;;17.30;99.90;;;;;;5080290;28;20028;-75
2023/06/23 03:43:39;;;;;;;11.50;5.45;;;17.40;99.90;;;;;;5077665;28;20023;-75
2023/06/23 03:46:17;;;;;;;11.52;5.97;;;17.30;99.90;;;;;;5092603;28;20019;-75
2023/06/23 03:48:45;;;;;;;10.75;5.10;;;17.30;99.90;;;;;;5097471;28;20024;-75
2023/06/23 03:51:13;;;;;;;11.38;5.18;;;17.30;99.90;;;;;;5098363;28;20096;-75
2023/06/23 03:53:40;;;;;;;12.10;5.55;;;17.30;99.90;;;;;;5074278;28;20301;-75
2023/06/23 03:56:10;;;;;;;11.07;5.55;;;17.30;99.90;;;;;;5096356;28;20073;-75
2023/06/23 03:58:37;;;;;;;11.80;5.60;;;17.30;99.90;;;;;;5095418;28;20238;-75
2023/06/23 04:01:05;;;;;;;11.38;5.68;;;17.30;99.90;;;;;;5077813;28;20080;-75
2023/06/23 04:03:32;;;;;;;14.73;5.55;;;17.30;99.90;;;;;;5094768;28;20301;-75
2023/06/23 04:05:59;;;;;;;12.00;5.75;;;17.30;99.90;;;;;;5080975;28;20189;-75
2023/06/23 04:08:29;;;;;;;12.93;5.18;;;17.30;99.90;;;;;;5064302;28;20020;-75
2023/06/23 04:10:57;;;;;;;12.55;5.65;;;17.30;99.90;;;;;;5097203;28;20070;-75
2023/06/23 04:13:26;;;;;;;11.27;5.55;;;17.30;99.90;;;;;;5097784;28;20012;-75
2023/06/23 04:15:54;;;;;;;11.88;5.45;;;17.30;99.90;;;;;;5100393;28;20031;-75
2023/06/23 04:18:21;;;;;;;12.20;5.90;;;17.30;99.90;;;;;;5082596;28;20039;-75
2023/06/23 04:20:49;;;;;;;13.57;6.03;;;17.30;99.90;;;;;;5069004;28;20054;-75
2023/06/23 04:23:16;;;;;;;12.80;5.57;;;17.30;99.90;;;;;;5101174;28;20249;-75
2023/06/23 04:25:45;;;;;;;14.20;5.78;;;17.30;99.90;;;;;;5082814;28;20067;-75
2023/06/23 04:28:14;;;;;;;12.02;5.63;;;17.30;99.90;;;;;;5079735;28;20012;-76
2023/06/23 04:30:41;;;;;;;11.85;5.70;;;17.30;99.90;;;;;;5096866;28;20012;-75
2023/06/23 04:33:06;;;;;;;13.55;6.13;;;17.30;99.90;;;;;;5077909;28;20068;-75
2023/06/23 04:35:32;;;;;;;13.98;5.47;;;17.30;99.90;;;;;;5081448;28;20027;-75
2023/06/23 04:38:02;;;;;;;12.48;5.60;;;17.30;99.90;;;;;;5082913;28;20028;-75
2023/06/23 04:40:46;;;;;;;10.25;5.63;;;17.30;99.90;;;;;;5084789;28;20039;-75
2023/06/23 04:43:33;;;;;;;12.07;5.18;;;17.40;99.90;;;;;;5099697;28;20044;-75
2023/06/23 04:46:06;;;;;;;11.90;5.40;;;17.40;99.90;;;;;;5097902;28;20048;-75
2023/06/23 04:48:37;;;;;;;13.23;5.20;;;17.40;99.90;;;;;;5099269;28;20048;-75
2023/06/23 04:51:06;;;;;;;11.82;5.38;;;17.40;99.90;;;;;;5100445;28;20372;-75
2023/06/23 04:53:37;;;;;;;12.40;5.53;;;17.40;99.90;;;;;;5099777;28;20027;-75
2023/06/23 04:56:07;;;;;;;12.97;5.03;;;17.40;99.90;;;;;;5098106;28;20087;-75
2023/06/23 04:58:36;;;;;;;11.27;5.38;;;17.40;99.90;;;;;;5097300;28;20274;-75
2023/06/23 05:01:03;;;;;;;11.32;5.18;;;17.40;99.90;;;;;;5083010;28;20030;-75
2023/06/23 05:03:31;;;;;;;11.18;5.13;;;17.40;99.90;;;;;;5083130;28;20028;-75
2023/06/23 05:05:57;;;;;;;10.98;5.35;;;17.40;99.90;;;;;;5081873;28;20029;-75
2023/06/23 05:08:28;;;;;;;14.18;5.00;;;17.40;99.90;;;;;;5099484;28;20083;-75
2023/06/23 05:10:59;;;;;;;11.43;5.00;;;17.50;99.90;;;;;;5064259;28;20019;-75
2023/06/23 05:13:28;;;;;;;12.73;5.82;;;17.40;99.90;;;;;;5083515;28;20107;-75
2023/06/23 05:15:54;;;;;;;11.15;5.10;;;17.50;99.90;;;;;;5096639;28;20049;-75
2023/06/23 05:18:22;;;;;;;13.65;6.05;;;17.50;99.90;;;;;;5097120;28;20056;-75
2023/06/23 05:20:49;;;;;;;10.82;5.13;;;17.60;99.90;;;;;;5098117;28;20060;-75
2023/06/23 05:23:17;;;;;;;12.57;5.28;;;17.60;99.90;;;;;;5096678;28;20022;-75
2023/06/23 05:25:46;;;;;;;12.02;5.18;;;17.60;99.90;;;;;;5098085;28;20020;-75
2023/06/23 05:28:14;;;;;;;10.95;5.03;;;17.60;99.90;;;;;;5096800;28;20023;-76
2023/06/23 05:30:42;;;;;;;10.82;5.30;;;17.70;99.90;;;;;;5098214;28;20051;-76
2023/06/23 05:33:10;;;;;;;9.25;4.80;;;17.60;99.90;;;;;;5082653;28;20036;-75
2023/06/23 05:35:39;;;;;;;11.00;5.00;;;17.60;99.90;;;;;;5065851;28;20065;-75
2023/06/23 05:38:05;;;;;;;12.25;5.07;;;17.70;99.90;;;;;;5096494;28;20236;-75
2023/06/23 05:40:31;;;;;;;10.77;4.80;;;17.60;99.90;;;;;;5098037;28;20028;-75
2023/06/23 05:42:57;;;;;;;10.95;4.65;;;17.60;99.90;;;;;;5098707;28;20150;-76
2023/06/23 05:45:23;;;;;;;9.05;4.57;;;17.60;99.90;;;;;;5094766;28;20012;-75
2023/06/23 05:48:11;;;;;;;10.23;4.68;;;17.60;99.90;;;;;;5097590;28;20066;-76
2023/06/23 05:50:39;;;;;;;10.85;4.88;;;17.60;99.90;;;;;;5096660;28;20266;-75
2023/06/23 05:53:13;;;;;;;11.93;4.65;;;17.70;99.90;;;;;;5079843;28;20070;-76
2023/06/23 05:55:46;;;;;;;11.38;4.97;;;17.70;99.90;;;;;;5099544;28;20036;-75
2023/06/23 05:58:13;;;;;;;11.70;5.32;;;17.60;99.90;;;;;;5074127;28;20047;-75
2023/06/23 06:00:45;;;;;;;10.48;4.95;;;17.70;99.90;;;;;;5097324;28;20067;-75
2023/06/23 06:03:14;;;;;;;11.68;5.65;;;17.70;99.90;;;;;;5079883;28;20028;-75
2023/06/23 06:05:45;;;;;;;11.68;5.43;;;17.70;99.90;;;;;;5098808;28;20024;-76
2023/06/23 06:08:12;;;;;;;9.70;4.85;;;17.80;99.90;;;;;;5080323;28;20008;-75
2023/06/23 06:10:39;;;;;;;11.25;5.53;;;18.70;99.90;;;;;;5099181;28;20192;-75
2023/06/23 06:13:07;;;;;;;12.02;5.25;;;18.00;99.90;;;;;;5063851;28;20076;-76
2023/06/23 06:15:33;;;;;;;12.15;5.20;;;18.10;99.90;;;;;;5081956;28;20354;-75
2023/06/23 06:18:04;;;;;;;10.40;5.05;;;18.20;99.90;;;;;;5097980;28;20287;-76
2023/06/23 06:20:32;;;;;;;10.23;4.47;;;18.20;99.90;;;;;;5080672;28;20051;-75
2023/06/23 06:22:59;;;;;;;10.50;4.68;;;18.20;99.90;;;;;;5094561;28;20181;-75
2023/06/23 06:25:27;;;;;;;12.05;5.03;;;18.20;99.90;;;;;;5080558;28;20233;-76
2023/06/23 06:27:55;;;;;;;11.27;4.97;;;18.30;99.90;;;;;;5095884;28;20024;-76
2023/06/23 06:30:22;;;;;;;11.30;5.07;;;18.40;99.90;;;;;;5096896;28;20289;-76
2023/06/23 06:32:51;;;;;;;11.77;4.90;;;18.60;99.90;;;;;;5093872;28;20055;-76
2023/06/23 06:35:19;;;;;;;11.77;5.30;;;18.70;99.90;;;;;;5099481;28;20292;-76
2023/06/23 06:37:47;;;;;;;11.57;5.13;;;18.90;99.90;;;;;;5099517;28;20274;-76
2023/06/23 06:40:17;;;;;;;11.20;5.63;;;19.00;99.90;;;;;;5097714;28;20098;-76
2023/06/23 06:42:43;;;;;;;10.75;5.38;;;19.20;99.90;;;;;;5084130;28;20052;-76
2023/06/23 06:45:09;;;;;;;10.27;4.97;;;19.30;99.90;;;;;;5101262;28;20035;-76
2023/06/23 06:47:43;;;;;;;11.40;5.35;;;19.30;99.90;;;;;;5085022;28;20285;-76
2023/06/23 06:50:10;;;;;;;10.30;4.95;;;19.50;99.90;;;;;;5083997;28;20051;-76
2023/06/23 06:52:38;;;;;;;11.40;5.43;;;19.50;99.90;;;;;;5083836;28;20265;-76
2023/06/23 06:55:04;;;;;;;10.55;4.88;;;19.70;99.90;;;;;;5101653;28;20027;-76
2023/06/23 06:57:31;;;;;;;10.25;5.10;;;19.90;99.90;;;;;;5100129;28;20016;-76
2023/06/23 06:59:57;;;;;;;11.63;4.90;;;20.00;99.90;;;;;;5081572;28;20274;-76
2023/06/23 07:02:24;;;;;;;9.52;4.82;;;20.10;99.90;;;;;;5099605;28;20058;-75
2023/06/23 07:04:51;;;;;;;9.75;4.65;;;20.30;99.90;;;;;;5100343;28;20332;-76
2023/06/23 07:07:16;;;;;;;10.95;4.30;;;20.40;99.90;;;;;;5102267;28;20024;-76
2023/06/23 07:09:42;;;;;;;10.95;4.68;;;20.50;99.90;;;;;;5100524;28;20032;-76
2023/06/23 07:12:08;;;;;;;11.70;4.38;;;20.60;99.90;;;;;;5064908;28;20184;-76
2023/06/23 07:14:35;;;;;;;12.02;4.30;;;20.60;99.90;;;;;;5099257;28;20035;-75
2023/06/23 07:17:01;;;;;;;10.05;4.30;;;20.60;99.90;;;;;;5096013;28;20138;-76
2023/06/23 07:19:27;;;;;;;9.98;4.50;;;20.70;99.90;;;;;;5081925;28;20037;-76
2023/06/23 07:21:53;;;;;;;9.63;4.13;;;20.70;99.90;;;;;;5098166;28;20036;-76
2023/06/23 07:24:19;;;;;;;9.23;3.78;;;20.80;99.90;;;;;;5084275;28;20220;-76
2023/06/23 07:26:45;;;;;;;9.25;4.00;;;20.80;99.90;;;;;;5083064;28;20055;-76
2023/06/23 07:29:11;;;;;;;9.43;4.20;;;20.90;99.90;;;;;;5085145;28;20065;-76
2023/06/23 07:31:37;;;;;;;9.27;4.18;;;21.00;99.90;;;;;;5085814;28;20043;-76
2023/06/23 07:34:04;;;;;;;9.40;4.05;;;21.10;99.90;;;;;;5098819;28;20262;-76
2023/06/23 07:36:29;;;;;;;9.07;3.92;;;19.50;99.90;;;;;;5100141;28;20031;-76
2023/06/23 07:38:55;;;;;;;10.82;4.18;;;21.30;99.90;;;;;;5086029;28;20028;-76
2023/06/23 07:41:21;;;;;;;11.23;4.75;;;21.40;99.90;;;;;;5074866;28;20021;-75
2023/06/23 07:43:46;;;;;;;9.65;4.18;;;21.50;99.90;;;;;;5071398;28;20225;-76
2023/06/23 07:46:12;;;;;;;8.93;4.00;;;21.50;99.90;;;;;;5082875;28;20031;-76
2023/06/23 07:48:38;;;;;;;8.73;3.88;;;21.60;99.90;;;;;;5077626;28;20016;-76
2023/06/23 07:51:03;;;;;;;9.48;3.88;;;21.50;99.90;;;;;;5081477;28;20020;-76
2023/06/23 07:53:29;;;;;;;9.93;3.75;;;21.50;99.90;;;;;;5099124;28;20043;-75
2023/06/23 07:55:55;;;;;;;8.88;3.88;;;21.60;99.90;;;;;;5079211;28;20125;-75
2023/06/23 07:58:20;;;;;;;8.27;3.45;;;21.60;99.90;;;;;;5083282;28;20270;-75
2023/06/23 08:00:46;;;;;;;9.98;3.78;;;21.70;99.90;;;;;;5101875;28;20066;-75
2023/06/23 08:03:12;;;;;;;9.27;3.60;;;21.80;99.90;;;;;;5083005;28;20031;-76
2023/06/23 08:05:38;;;;;;;9.07;3.35;;;21.90;99.90;;;;;;5078601;28;20013;-76
2023/06/23 08:08:05;;;;;;;7.80;3.40;;;22.00;99.90;;;;;;5095864;28;20096;-76
2023/06/23 08:10:30;;;;;;;10.48;3.60;;;22.10;99.90;;;;;;5083046;28;20016;-75
2023/06/23 08:12:56;;;;;;;8.85;3.35;;;22.10;99.90;;;;;;5083188;28;20154;-76
2023/06/23 08:15:22;;;;;;;8.98;3.20;;;22.20;99.90;;;;;;5100695;28;20016;-75
2023/06/23 08:17:48;;;;;;;7.18;2.92;;;22.20;99.90;;;;;;5080467;28;20143;-75
2023/06/23 08:20:14;;;;;;;7.55;3.15;;;22.10;99.90;;;;;;5071715;28;20043;-75
2023/06/23 08:22:40;;;;;;;7.57;3.10;;;22.20;99.90;;;;;;5093168;28;20020;-76
2023/06/23 08:25:07;;;;;;;7.13;3.05;;;22.20;99.90;;;;;;5074130;28;20246;-76
2023/06/23 08:27:33;;;;;;;10.25;3.50;;;22.30;99.90;;;;;;5098914;28;20131;-76
2023/06/23 08:29:59;;;;;;;8.13;3.35;;;22.50;99.90;;;;;;5094997;28;20061;-76
2023/06/23 08:32:25;;;;;;;7.43;3.33;;;22.50;99.90;;;;;;5099131;28;20020;-76
2023/06/23 08:34:50;;;;;;;8.88;3.55;;;22.60;99.90;;;;;;5080872;28;20053;-76
2023/06/23 08:37:16;;;;;;;8.38;2.90;;;22.60;99.90;;;;;;5101104;28;20081;-76
2023/06/23 08:39:42;;;;;;;9.02;3.58;;;22.60;99.90;;;;;;5081531;28;20204;-76
2023/06/23 08:42:08;;;;;;;7.93;3.00;;;22.50;99.90;;;;;;5084042;28;20023;-76
2023/06/23 08:44:37;;;;;;;7.78;3.10;;;22.40;99.90;;;;;;5099198;28;20027;-76
2023/06/23 08:47:06;;;;;;;8.60;3.20;;;22.50;99.90;;;;;;5097440;28;20028;-76
2023/06/23 08:49:37;;;;;;;8.73;3.28;;;22.60;99.90;;;;;;5098167;28;20034;-76
2023/06/23 08:52:03;;;;;;;7.70;3.17;;;22.70;99.90;;;;;;5099250;28;20027;-76
2023/06/23 08:54:30;;;;;;;7.93;3.30;;;22.70;99.90;;;;;;5067105;28;20063;-76
2023/06/23 08:56:56;;;;;;;8.00;3.30;;;22.70;99.90;;;;;;5100610;28;20180;-76
2023/06/23 08:59:22;;;;;;;9.35;3.50;;;22.70;99.90;;;;;;5083233;28;20044;-76
2023/06/23 09:01:47;;;;;;;7.93;3.25;;;22.80;99.90;;;;;;5067805;28;20020;-76
2023/06/23 09:04:14;;;;;;;8.35;3.50;;;23.00;99.90;;;;;;5086986;28;20083;-76
2023/06/23 09:06:40;;;;;;;8.55;3.40;;;23.00;99.90;;;;;;5084944;28;20021;-76
2023/06/23 09:09:06;;;;;;;7.43;3.20;;;23.00;99.90;;;;;;5105629;28;20079;-76
2023/06/23 09:11:32;;;;;;;7.85;3.53;;;23.10;99.90;;;;;;5086256;28;20027;-76
2023/06/23 09:14:00;;;;;;;9.18;3.28;;;23.00;99.90;;;;;;5102877;28;20165;-76
2023/06/23 09:16:27;;;;;;;10.80;3.83;;;23.00;99.90;;;;;;5099842;28;21646;-76
2023/06/23 09:18:53;;;;;;;7.97;3.50;;;23.10;99.90;;;;;;5098888;28;20039;-76
2023/06/23 09:21:20;;;;;;;9.15;3.67;;;23.20;99.90;;;;;;5099891;28;20044;-76
2023/06/23 09:24:05;;;;;;;8.57;3.40;;;23.20;99.90;;;;;;5099806;28;20031;-76
2023/06/23 09:26:49;;;;;;;8.00;3.60;;;23.30;99.90;;;;;;5082503;28;20038;-76
2023/06/23 09:29:20;;;;;;;7.97;3.30;;;23.30;99.90;;;;;;5099597;28;20185;-76
2023/06/23 09:31:51;;;;;;;9.07;3.42;;;23.70;99.90;;;;;;5096750;28;20024;-76
2023/06/23 09:34:21;;;;;;;8.93;3.80;;;23.40;99.90;;;;;;5097647;28;20097;-76
2023/06/23 09:36:47;;;;;;;7.60;3.25;;;23.60;99.90;;;;;;5096435;28;20024;-76
2023/06/23 09:39:14;;;;;;;7.70;3.22;;;23.60;99.90;;;;;;5083938;28;20221;-76
2023/06/23 09:41:55;;;;;;;9.07;3.63;;;23.60;99.90;;;;;;5082874;28;20020;-76
2023/06/23 09:44:30;;;;;;;10.05;3.60;;;23.70;99.90;;;;;;5082895;28;20261;-76
2023/06/23 09:47:04;;;;;;;9.10;3.58;;;23.70;99.90;;;;;;5093981;28;20016;-76
2023/06/23 09:49:41;;;;;;;8.50;3.70;;;23.70;99.90;;;;;;5098039;28;20047;-76
2023/06/23 09:52:08;;;;;;;7.80;3.25;;;23.70;99.90;;;;;;5095274;28;20020;-76
2023/06/23 09:54:41;;;;;;;8.52;3.22;;;23.70;99.90;;;;;;5079267;28;20207;-76
2023/06/23 09:57:09;;;;;;;8.50;3.67;;;23.70;99.90;;;;;;5097093;28;20023;-76
2023/06/23 09:59:43;;;;;;;9.00;3.55;;;23.70;99.90;;;;;;5097331;28;20023;-76
2023/06/23 10:02:20;;;;;;;7.82;3.38;;;23.60;99.90;;;;;;5095405;28;20024;-76
2023/06/23 10:04:48;;;;;;;7.63;2.80;;;23.50;99.90;;;;;;5101329;28;20032;-75
2023/06/23 10:07:20;;;;;;;7.45;3.00;;;23.60;99.90;;;;;;5079713;28;20024;-76
2023/06/23 10:10:07;;;;;;;8.68;3.33;;;23.60;99.90;;;;;;5094726;28;20032;-76
2023/06/23 10:12:33;;;;;;;7.68;2.60;;;23.70;99.90;;;;;;5099531;28;20048;-76
2023/06/23 10:14:59;;;;;;;7.22;2.70;;;23.50;99.90;;;;;;5097692;28;20111;-76
2023/06/23 10:17:25;;;;;;;7.85;2.95;;;23.70;99.90;;;;;;5081162;28;20215;-76
2023/06/23 10:19:54;;;;;;;7.20;2.65;;;24.00;99.90;;;;;;5094789;28;20036;-76
2023/06/23 10:22:21;;;;;;;7.60;2.70;;;23.90;99.90;;;;;;5095749;28;20024;-76
2023/06/23 10:24:51;;;;;;;6.70;2.60;;;23.90;99.90;;;;;;5096004;28;20077;-76
2023/06/23 10:27:29;;;;;;;7.88;3.00;;;24.00;99.90;;;;;;5094155;28;20028;-76
2023/06/23 10:29:59;;;;;;;6.88;2.65;;;24.00;99.90;;;;;;5096004;28;20174;-76
2023/06/23 10:32:30;;;;;;;7.20;2.75;;;24.00;99.90;;;;;;5094134;28;20087;-76
2023/06/23 10:34:57;;;;;;;6.72;2.70;;;24.10;99.90;;;;;;5074794;28;20019;-76
2023/06/23 10:37:27;;;;;;;8.27;2.50;;;24.10;99.90;;;;;;5076794;28;20038;-76
2023/06/23 10:40:00;;;;;;;8.50;2.80;;;24.20;99.90;;;;;;5075001;28;20261;-76
2023/06/23 10:42:28;;;;;;;8.43;2.72;;;24.20;99.90;;;;;;5079431;28;20024;-78
2023/06/23 10:44:54;;;;;;;8.80;3.00;;;24.20;99.90;;;;;;5080918;28;20023;-77
2023/06/23 10:47:21;;;;;;;8.15;3.00;;;24.30;99.90;;;;;;5095399;28;20371;-76
2023/06/23 10:49:48;;;;;;;7.20;2.45;;;24.30;99.90;;;;;;5076967;28;20023;-76
2023/06/23 10:52:15;;;;;;;8.68;2.50;;;24.30;99.90;;;;;;5081533;28;20027;-76
2023/06/23 10:54:43;;;;;;;7.47;2.65;;;24.40;99.90;;;;;;5079866;28;20034;-76
2023/06/23 10:57:13;;;;;;;6.72;2.80;;;24.30;99.90;;;;;;5094738;28;20151;-76
2023/06/23 10:59:44;;;;;;;6.47;2.40;;;24.30;99.90;;;;;;5053361;28;20085;-76
2023/06/23 11:02:17;;;;;;;7.45;2.58;;;24.40;99.90;;;;;;5078232;28;20046;-77
2023/06/23 11:04:58;;;;;;;9.25;2.80;;;24.30;99.90;;;;;;5079672;28;20094;-76
2023/06/23 11:07:24;;;;;;;7.65;3.00;;;24.20;99.90;;;;;;5080441;28;20089;-76
2023/06/23 11:09:58;;;;;;;7.13;2.95;;;24.20;99.90;;;;;;5092733;28;20046;-76
2023/06/23 11:12:36;;;;;;;9.70;3.60;;;24.30;99.90;;;;;;5080864;28;20028;-76
2023/06/23 11:15:20;;;;;;;8.85;3.35;;;24.20;99.90;;;;;;5096535;28;20216;-76
2023/06/23 11:17:49;;;;;;;8.68;3.80;;;24.20;99.90;;;;;;5094381;28;20025;-76
2023/06/23 11:20:24;;;;;;;8.35;3.50;;;24.20;99.90;;;;;;5093998;28;20032;-76
2023/06/23 11:23:13;;;;;;;9.75;3.75;;;24.10;99.90;;;;;;5089788;28;20032;-76
2023/06/23 11:25:50;;;;;;;10.90;3.92;;;24.10;99.90;;;;;;5101227;28;20024;-76
2023/06/23 11:28:28;;;;;;;9.18;4.18;;;24.30;99.90;;;;;;5085377;28;20032;-76
2023/06/23 11:31:21;;;;;;;9.27;3.83;;;24.30;99.90;;;;;;5102620;28;20084;-76
2023/06/23 11:34:02;;;;;;;8.63;4.07;;;24.40;99.90;;;;;;5085463;28;20024;-76
2023/06/23 11:36:30;;;;;;;7.97;3.70;;;24.40;99.90;;;;;;5102060;28;20084;-76
2023/06/23 11:38:57;;;;;;;8.63;4.05;;;24.50;99.90;;;;;;5102028;28;20035;-76
2023/06/23 11:41:30;;;;;;;9.27;4.15;;;24.70;99.90;;;;;;5084991;28;20024;-76
2023/06/23 11:44:03;;;;;;;9.68;4.30;;;24.70;99.90;;;;;;5085197;28;20306;-76
2023/06/23 11:46:33;;;;;;;7.85;4.00;;;24.40;99.90;;;;;;5101858;28;20031;-76
2023/06/23 11:49:11;;;;;;;10.52;4.57;;;24.50;99.90;;;;;;5102159;28;20053;-76
2023/06/23 11:51:36;;;;;;;10.18;4.55;;;24.50;99.90;;;;;;5101916;28;20034;-76
2023/06/23 11:54:03;;;;;;;10.85;4.40;;;24.50;99.90;;;;;;5085412;28;20055;-75
2023/06/23 11:56:29;;;;;;;10.13;4.82;;;24.40;99.90;;;;;;5101608;28;20027;-76
2023/06/23 11:58:55;;;;;;;10.95;4.82;;;24.40;99.90;;;;;;5081537;28;20060;-75
2023/06/23 12:01:22;;;;;;;9.23;4.70;;;24.20;99.90;;;;;;5093273;28;20182;-75
2023/06/23 12:03:48;;;;;;;8.65;3.95;;;24.20;99.90;;;;;;5101954;28;20099;-75
2023/06/23 12:06:17;;;;;;;9.45;4.32;;;24.10;99.90;;;;;;5084895;28;20028;-76
2023/06/23 12:08:43;;;;;;;11.13;4.85;;;24.00;99.90;;;;;;5084963;28;20039;-75
2023/06/23 12:11:09;;;;;;;9.65;5.00;;;23.90;99.90;;;;;;5064626;28;20013;-75
2023/06/23 12:13:38;;;;;;;8.35;3.95;;;24.00;99.90;;;;;;5098513;28;20331;-76
2023/06/23 12:16:06;;;;;;;7.82;3.28;;;24.10;99.90;;;;;;5101658;28;20084;-75
2023/06/23 12:18:32;;;;;;;10.15;3.60;;;24.10;99.90;;;;;;5083892;28;20040;-76
2023/06/23 12:21:01;;;;;;;8.75;3.70;;;24.30;99.90;;;;;;5084723;28;20288;-76
2023/06/23 12:23:31;;;;;;;9.20;3.60;;;24.50;99.90;;;;;;5085002;28;20269;-76
2023/06/23 12:25:58;;;;;;;10.55;3.45;;;24.50;99.90;;;;;;5084856;28;20031;-76
2023/06/23 12:28:29;;;;;;;8.85;3.90;;;24.70;99.90;;;;;;5101469;28;20035;-76
2023/06/23 12:30:55;;;;;;;8.13;3.30;;;24.70;99.90;;;;;;5084836;28;20039;-76
2023/06/23 12:33:23;;;;;;;8.88;3.38;;;24.70;99.90;;;;;;5087282;28;20028;-75
2023/06/23 12:36:00;;;;;;;7.40;3.30;;;24.60;99.90;;;;;;5105775;28;20028;-75
2023/06/23 12:38:27;;;;;;;8.32;3.10;;;24.50;99.90;;;;;;5089139;28;20273;-75
2023/06/23 12:40:53;;;;;;;9.80;3.30;;;24.40;99.90;;;;;;5088603;28;20027;-75
2023/06/23 12:43:20;;;;;;;8.57;3.35;;;24.40;99.90;;;;;;5105208;28;20024;-76
2023/06/23 12:45:49;;;;;;;8.18;2.90;;;23.80;99.90;;;;;;5088649;28;20030;-76
2023/06/23 12:48:19;;;;;;;7.78;2.95;;;24.50;99.90;;;;;;5088267;28;20320;-76
2023/06/23 12:50:45;;;;;;;7.55;2.70;;;24.50;99.90;;;;;;5088532;28;20218;-75